METAR és
SPECI
METAR LHBP 011800Z 35004KT 8000 FEW030 BKN090 17/15 Q1025 NOSIG=
METAR LHBP 011730Z 04008KT 8000 -RA FEW007 SCT030 BKN085 17/15 Q1025 NOSIG=
METAR LHBP 011700Z 03005KT 8000 -RA SCT036 BKN090 18/14 Q1025 NOSIG=
METAR LHBP 011630Z 03004KT 350V060 CAVOK 18/14 Q1024 NOSIG=
METAR LHBP 011600Z 05005KT 010V070 CAVOK 19/14 Q1024 NOSIG=
METAR LHBP 011530Z 03005KT 350V060 CAVOK 19/14 Q1024 NOSIG=
TAF
TAF LHBP 011700Z 0118/0218 02005KT CAVOK TEMPO 0118/0202 8000 -RA FEW038 BKN080 BECMG 0200/0202 8000 BKN038 BKN055 TEMPO 0202/0212 3000 -RADZ BR SCT008 BKN017 BKN040 PROB30 TEMPO 0202/0208 1200 BCFG OVC002 TEMPO 0212/0218 -SHRA=
GAMET
Nincs érvényes távirat! 
FAHU41 LHBM 011100
LHCC GAMET VALID 011200/011800 LHBP-
BUDAPEST FIR BLW FL100
SECN I
ICE: 12/18 MOD 9500/XXXFT AMSL
SIGMETS APPLICABLE: NIL=
AIRMET
Nincs érvényes távirat! 
WAHU41 LHBM 301000
LHCC AIRMET 01 VALID 301000/301200 LHBP-
LHCC BUDAPEST FIR SFC VIS 0600-5000M FG BR W OF E01730 WKN=
SIGMET
Nincs érvényes távirat! 
WSHU31 LHBM 261430
LHCC SIGMET 04 VALID 261430/261730 LHBP-
LHCC BUDAPEST FIR CNL SIGMET 03 261330/261730=
SIGMET
Vulkáni hamufelhő
Nincs érvényes távirat! 
WVHU31 LHBM 271515 CCA
LHCC SIGMET 03 VALID 271515/271800 LHBP-
LHCC BUDAPEST FIR EXERCISE VOLCEX12/01
CNL VA SIGMET 02 271200/271800
EXERCISE EXERCISE EXERCISE VOLCEX12/01=